sensor_id;sensor_type;location;lat;lon;timestamp;P1;durP1;ratioP1;P2;durP2;ratioP2
2386;SDS011;49473;50.772;8.768;2023-02-01T00:00:08;5.70;;;3.67;;
2386;SDS011;49473;50.772;8.768;2023-02-01T00:02:36;7.50;;;3.80;;
2386;SDS011;49473;50.772;8.768;2023-02-01T00:05:05;10.03;;;4.20;;
2386;SDS011;49473;50.772;8.768;2023-02-01T00:07:33;5.80;;;3.77;;
2386;SDS011;49473;50.772;8.768;2023-02-01T00:10:00;10.33;;;3.57;;
2386;SDS011;49473;50.772;8.768;2023-02-01T00:12:28;7.37;;;4.40;;
2386;SDS011;49473;50.772;8.768;2023-02-01T00:14:56;6.90;;;3.67;;
2386;SDS011;49473;50.772;8.768;2023-02-01T00:17:23;8.37;;;3.60;;
2386;SDS011;49473;50.772;8.768;2023-02-01T00:19:50;7.83;;;3.73;;
2386;SDS011;49473;50.772;8.768;2023-02-01T00:22:17;6.40;;;3.70;;
2386;SDS011;49473;50.772;8.768;2023-02-01T00:24:43;6.07;;;3.40;;
2386;SDS011;49473;50.772;8.768;2023-02-01T00:27:10;7.70;;;3.40;;
2386;SDS011;49473;50.772;8.768;2023-02-01T00:29:42;5.23;;;3.70;;
2386;SDS011;49473;50.772;8.768;2023-02-01T00:32:11;6.77;;;3.33;;
2386;SDS011;49473;50.772;8.768;2023-02-01T00:34:38;7.60;;;3.93;;
2386;SDS011;49473;50.772;8.768;2023-02-01T00:37:05;7.90;;;4.13;;
2386;SDS011;49473;50.772;8.768;2023-02-01T00:39:32;9.53;;;4.43;;
2386;SDS011;49473;50.772;8.768;2023-02-01T00:41:59;7.83;;;4.23;;
2386;SDS011;49473;50.772;8.768;2023-02-01T00:44:27;7.17;;;3.40;;
2386;SDS011;49473;50.772;8.768;2023-02-01T00:46:58;10.00;;;4.33;;
2386;SDS011;49473;50.772;8.768;2023-02-01T00:49:26;5.30;;;3.13;;
2386;SDS011;49473;50.772;8.768;2023-02-01T00:51:53;10.07;;;4.30;;
2386;SDS011;49473;50.772;8.768;2023-02-01T00:54:20;4.87;;;4.00;;
2386;SDS011;49473;50.772;8.768;2023-02-01T00:56:46;6.30;;;3.70;;
2386;SDS011;49473;50.772;8.768;2023-02-01T00:59:13;5.77;;;3.70;;
2386;SDS011;49473;50.772;8.768;2023-02-01T01:01:40;10.23;;;4.53;;
2386;SDS011;49473;50.772;8.768;2023-02-01T01:04:07;9.10;;;3.63;;
2386;SDS011;49473;50.772;8.768;2023-02-01T01:06:35;8.43;;;4.53;;
2386;SDS011;49473;50.772;8.768;2023-02-01T01:09:03;12.30;;;4.60;;
2386;SDS011;49473;50.772;8.768;2023-02-01T01:11:32;7.77;;;4.20;;
2386;SDS011;49473;50.772;8.768;2023-02-01T01:14:00;8.90;;;4.20;;
2386;SDS011;49473;50.772;8.768;2023-02-01T01:16:27;10.93;;;5.80;;
2386;SDS011;49473;50.772;8.768;2023-02-01T01:18:55;8.33;;;4.60;;
2386;SDS011;49473;50.772;8.768;2023-02-01T01:21:23;9.47;;;5.30;;
2386;SDS011;49473;50.772;8.768;2023-02-01T01:23:51;10.23;;;5.80;;
2386;SDS011;49473;50.772;8.768;2023-02-01T01:26:18;8.10;;;5.07;;
2386;SDS011;49473;50.772;8.768;2023-02-01T01:28:47;7.27;;;5.03;;
2386;SDS011;49473;50.772;8.768;2023-02-01T01:31:15;8.73;;;5.53;;
2386;SDS011;49473;50.772;8.768;2023-02-01T01:33:43;10.43;;;6.13;;
2386;SDS011;49473;50.772;8.768;2023-02-01T01:36:10;8.93;;;5.30;;
2386;SDS011;49473;50.772;8.768;2023-02-01T01:38:37;10.53;;;5.93;;
2386;SDS011;49473;50.772;8.768;2023-02-01T01:41:06;10.97;;;6.67;;
2386;SDS011;49473;50.772;8.768;2023-02-01T01:43:54;10.20;;;5.90;;
2386;SDS011;49473;50.772;8.768;2023-02-01T01:46:23;9.07;;;5.73;;
2386;SDS011;49473;50.772;8.768;2023-02-01T01:48:52;12.60;;;6.50;;
2386;SDS011;49473;50.772;8.768;2023-02-01T01:51:24;12.90;;;6.70;;
2386;SDS011;49473;50.772;8.768;2023-02-01T01:53:56;8.70;;;5.87;;
2386;SDS011;49473;50.772;8.768;2023-02-01T01:56:28;12.30;;;6.90;;
2386;SDS011;49473;50.772;8.768;2023-02-01T01:58:58;9.10;;;6.27;;
2386;SDS011;49473;50.772;8.768;2023-02-01T02:01:25;12.83;;;7.03;;
2386;SDS011;49473;50.772;8.768;2023-02-01T02:03:53;15.50;;;5.97;;
2386;SDS011;49473;50.772;8.768;2023-02-01T02:06:23;8.57;;;5.43;;
2386;SDS011;49473;50.772;8.768;2023-02-01T02:08:58;9.27;;;6.03;;
2386;SDS011;49473;50.772;8.768;2023-02-01T02:11:25;9.27;;;6.10;;
2386;SDS011;49473;50.772;8.768;2023-02-01T02:13:53;8.53;;;6.33;;
2386;SDS011;49473;50.772;8.768;2023-02-01T02:16:33;12.03;;;8.00;;
2386;SDS011;49473;50.772;8.768;2023-02-01T02:22:35;8.70;;;7.00;;
2386;SDS011;49473;50.772;8.768;2023-02-01T02:28:37;7.93;;;6.90;;
2386;SDS011;49473;50.772;8.768;2023-02-01T02:31:23;10.73;;;7.23;;
2386;SDS011;49473;50.772;8.768;2023-02-01T02:34:07;14.80;;;7.30;;
2386;SDS011;49473;50.772;8.768;2023-02-01T02:36:43;10.00;;;6.57;;
2386;SDS011;49473;50.772;8.768;2023-02-01T02:39:20;12.83;;;7.70;;
2386;SDS011;49473;50.772;8.768;2023-02-01T02:41:57;7.10;;;6.10;;
2386;SDS011;49473;50.772;8.768;2023-02-01T02:44:47;10.60;;;6.57;;
2386;SDS011;49473;50.772;8.768;2023-02-01T02:47:40;8.63;;;7.40;;
2386;SDS011;49473;50.772;8.768;2023-02-01T02:50:15;11.87;;;7.20;;
2386;SDS011;49473;50.772;8.768;2023-02-01T02:53:06;10.73;;;7.13;;
2386;SDS011;49473;50.772;8.768;2023-02-01T02:55:54;14.93;;;6.43;;
2386;SDS011;49473;50.772;8.768;2023-02-01T02:58:41;9.87;;;6.20;;
2386;SDS011;49473;50.772;8.768;2023-02-01T03:01:27;14.33;;;6.57;;
2386;SDS011;49473;50.772;8.768;2023-02-01T03:04:12;10.83;;;6.00;;
2386;SDS011;49473;50.772;8.768;2023-02-01T03:06:43;13.17;;;7.00;;
2386;SDS011;49473;50.772;8.768;2023-02-01T03:09:13;11.37;;;6.47;;
2386;SDS011;49473;50.772;8.768;2023-02-01T03:11:47;8.60;;;5.83;;
2386;SDS011;49473;50.772;8.768;2023-02-01T03:14:36;15.80;;;6.90;;
2386;SDS011;49473;50.772;8.768;2023-02-01T03:17:08;7.20;;;6.23;;
2386;SDS011;49473;50.772;8.768;2023-02-01T03:19:39;11.00;;;5.80;;
2386;SDS011;49473;50.772;8.768;2023-02-01T03:22:15;12.80;;;7.93;;
2386;SDS011;49473;50.772;8.768;2023-02-01T03:24:46;9.73;;;5.90;;
2386;SDS011;49473;50.772;8.768;2023-02-01T03:27:17;9.83;;;6.30;;
2386;SDS011;49473;50.772;8.768;2023-02-01T03:29:48;12.40;;;5.47;;
2386;SDS011;49473;50.772;8.768;2023-02-01T03:32:18;9.77;;;5.20;;
2386;SDS011;49473;50.772;8.768;2023-02-01T03:34:46;10.63;;;5.50;;
2386;SDS011;49473;50.772;8.768;2023-02-01T03:37:16;10.90;;;5.20;;
2386;SDS011;49473;50.772;8.768;2023-02-01T03:39:50;10.57;;;5.50;;
2386;SDS011;49473;50.772;8.768;2023-02-01T03:42:23;8.50;;;4.97;;
2386;SDS011;49473;50.772;8.768;2023-02-01T03:44:54;7.77;;;4.80;;
2386;SDS011;49473;50.772;8.768;2023-02-01T03:47:30;10.63;;;4.90;;
2386;SDS011;49473;50.772;8.768;2023-02-01T03:50:02;10.00;;;4.80;;
2386;SDS011;49473;50.772;8.768;2023-02-01T03:52:38;7.13;;;4.67;;
2386;SDS011;49473;50.772;8.768;2023-02-01T03:55:08;9.83;;;4.50;;
2386;SDS011;49473;50.772;8.768;2023-02-01T03:57:38;8.03;;;4.20;;
2386;SDS011;49473;50.772;8.768;2023-02-01T04:00:14;8.10;;;4.80;;
2386;SDS011;49473;50.772;8.768;2023-02-01T04:02:42;11.47;;;5.20;;
2386;SDS011;49473;50.772;8.768;2023-02-01T04:05:09;12.33;;;5.20;;
2386;SDS011;49473;50.772;8.768;2023-02-01T04:07:37;7.33;;;5.03;;
2386;SDS011;49473;50.772;8.768;2023-02-01T04:10:05;11.00;;;4.93;;
2386;SDS011;49473;50.772;8.768;2023-02-01T04:12:32;11.10;;;5.13;;
2386;SDS011;49473;50.772;8.768;2023-02-01T04:14:59;10.60;;;5.10;;
2386;SDS011;49473;50.772;8.768;2023-02-01T04:17:25;15.30;;;4.97;;
2386;SDS011;49473;50.772;8.768;2023-02-01T04:19:52;12.20;;;4.30;;
2386;SDS011;49473;50.772;8.768;2023-02-01T04:22:19;7.93;;;4.87;;
2386;SDS011;49473;50.772;8.768;2023-02-01T04:24:47;9.10;;;4.50;;
2386;SDS011;49473;50.772;8.768;2023-02-01T04:27:14;8.63;;;4.73;;
2386;SDS011;49473;50.772;8.768;2023-02-01T04:29:42;11.90;;;4.80;;
2386;SDS011;49473;50.772;8.768;2023-02-01T04:32:10;16.23;;;5.70;;
2386;SDS011;49473;50.772;8.768;2023-02-01T04:34:37;9.93;;;4.33;;
2386;SDS011;49473;50.772;8.768;2023-02-01T04:37:03;11.20;;;4.53;;
2386;SDS011;49473;50.772;8.768;2023-02-01T04:39:30;6.87;;;4.33;;
2386;SDS011;49473;50.772;8.768;2023-02-01T04:41:58;15.00;;;5.10;;
2386;SDS011;49473;50.772;8.768;2023-02-01T04:44:25;10.73;;;4.97;;
2386;SDS011;49473;50.772;8.768;2023-02-01T04:46:51;12.90;;;4.57;;
2386;SDS011;49473;50.772;8.768;2023-02-01T04:49:18;12.50;;;4.43;;
2386;SDS011;49473;50.772;8.768;2023-02-01T04:51:46;11.00;;;4.30;;
2386;SDS011;49473;50.772;8.768;2023-02-01T04:54:13;10.93;;;5.00;;
2386;SDS011;49473;50.772;8.768;2023-02-01T04:56:40;10.30;;;5.03;;
2386;SDS011;49473;50.772;8.768;2023-02-01T04:59:10;13.23;;;6.20;;
2386;SDS011;49473;50.772;8.768;2023-02-01T05:01:36;11.30;;;4.90;;
2386;SDS011;49473;50.772;8.768;2023-02-01T05:04:03;10.60;;;4.50;;
2386;SDS011;49473;50.772;8.768;2023-02-01T05:06:30;13.60;;;5.03;;
2386;SDS011;49473;50.772;8.768;2023-02-01T05:08:57;12.77;;;5.47;;
2386;SDS011;49473;50.772;8.768;2023-02-01T05:11:23;10.70;;;4.90;;
2386;SDS011;49473;50.772;8.768;2023-02-01T05:14:09;11.07;;;5.73;;
2386;SDS011;49473;50.772;8.768;2023-02-01T05:16:36;11.80;;;5.43;;
2386;SDS011;49473;50.772;8.768;2023-02-01T05:19:02;10.77;;;5.13;;
2386;SDS011;49473;50.772;8.768;2023-02-01T05:21:29;7.50;;;4.83;;
2386;SDS011;49473;50.772;8.768;2023-02-01T05:23:56;10.23;;;5.20;;
2386;SDS011;49473;50.772;8.768;2023-02-01T05:26:41;11.37;;;5.93;;
2386;SDS011;49473;50.772;8.768;2023-02-01T05:29:09;7.70;;;4.33;;
2386;SDS011;49473;50.772;8.768;2023-02-01T05:31:36;7.30;;;5.17;;
2386;SDS011;49473;50.772;8.768;2023-02-01T05:34:03;10.63;;;5.17;;
2386;SDS011;49473;50.772;8.768;2023-02-01T05:36:31;14.35;;;5.30;;
2386;SDS011;49473;50.772;8.768;2023-02-01T05:38:58;9.63;;;4.50;;
2386;SDS011;49473;50.772;8.768;2023-02-01T05:41:25;8.17;;;4.90;;
2386;SDS011;49473;50.772;8.768;2023-02-01T05:43:52;9.60;;;5.10;;
2386;SDS011;49473;50.772;8.768;2023-02-01T05:46:20;9.80;;;4.97;;
2386;SDS011;49473;50.772;8.768;2023-02-01T05:48:47;8.20;;;4.60;;
2386;SDS011;49473;50.772;8.768;2023-02-01T05:51:13;11.30;;;4.70;;
2386;SDS011;49473;50.772;8.768;2023-02-01T05:53:40;10.07;;;4.70;;
2386;SDS011;49473;50.772;8.768;2023-02-01T05:56:07;9.00;;;5.30;;
2386;SDS011;49473;50.772;8.768;2023-02-01T05:58:34;7.30;;;4.73;;
2386;SDS011;49473;50.772;8.768;2023-02-01T06:01:00;9.13;;;4.70;;
2386;SDS011;49473;50.772;8.768;2023-02-01T06:03:29;8.67;;;5.30;;
2386;SDS011;49473;50.772;8.768;2023-02-01T06:05:56;9.90;;;5.13;;
2386;SDS011;49473;50.772;8.768;2023-02-01T06:08:22;8.93;;;4.60;;
2386;SDS011;49473;50.772;8.768;2023-02-01T06:10:50;7.83;;;4.30;;
2386;SDS011;49473;50.772;8.768;2023-02-01T06:13:17;10.67;;;5.30;;
2386;SDS011;49473;50.772;8.768;2023-02-01T06:15:45;9.57;;;4.47;;
2386;SDS011;49473;50.772;8.768;2023-02-01T06:18:12;13.33;;;4.97;;
2386;SDS011;49473;50.772;8.768;2023-02-01T06:20:42;10.40;;;4.27;;
2386;SDS011;49473;50.772;8.768;2023-02-01T06:23:08;8.57;;;4.30;;
2386;SDS011;49473;50.772;8.768;2023-02-01T06:25:35;11.00;;;3.77;;
2386;SDS011;49473;50.772;8.768;2023-02-01T06:28:02;12.23;;;5.30;;
2386;SDS011;49473;50.772;8.768;2023-02-01T06:30:30;19.37;;;4.63;;
2386;SDS011;49473;50.772;8.768;2023-02-01T06:32:57;9.93;;;4.13;;
2386;SDS011;49473;50.772;8.768;2023-02-01T06:35:24;8.03;;;4.73;;
2386;SDS011;49473;50.772;8.768;2023-02-01T06:37:52;5.20;;;4.70;;
2386;SDS011;49473;50.772;8.768;2023-02-01T06:40:19;11.20;;;4.97;;
2386;SDS011;49473;50.772;8.768;2023-02-01T06:42:47;8.03;;;4.27;;
2386;SDS011;49473;50.772;8.768;2023-02-01T06:45:14;10.13;;;4.70;;
2386;SDS011;49473;50.772;8.768;2023-02-01T06:47:41;10.60;;;5.00;;
2386;SDS011;49473;50.772;8.768;2023-02-01T06:50:08;7.80;;;4.77;;
2386;SDS011;49473;50.772;8.768;2023-02-01T06:52:36;8.70;;;5.30;;
2386;SDS011;49473;50.772;8.768;2023-02-01T06:55:04;11.70;;;4.30;;
2386;SDS011;49473;50.772;8.768;2023-02-01T06:57:32;8.43;;;4.90;;
2386;SDS011;49473;50.772;8.768;2023-02-01T07:00:00;14.80;;;4.90;;
2386;SDS011;49473;50.772;8.768;2023-02-01T07:02:28;12.30;;;4.73;;
2386;SDS011;49473;50.772;8.768;2023-02-01T07:04:54;8.90;;;4.00;;
2386;SDS011;49473;50.772;8.768;2023-02-01T07:07:21;10.40;;;4.33;;
2386;SDS011;49473;50.772;8.768;2023-02-01T07:09:48;4.10;;;3.47;;
2386;SDS011;49473;50.772;8.768;2023-02-01T07:12:16;11.50;;;4.33;;
2386;SDS011;49473;50.772;8.768;2023-02-01T07:14:44;7.93;;;4.43;;
2386;SDS011;49473;50.772;8.768;2023-02-01T07:17:11;7.70;;;4.17;;
2386;SDS011;49473;50.772;8.768;2023-02-01T07:19:38;12.40;;;4.87;;
2386;SDS011;49473;50.772;8.768;2023-02-01T07:22:04;8.23;;;4.80;;
2386;SDS011;49473;50.772;8.768;2023-02-01T07:24:31;9.37;;;4.20;;
2386;SDS011;49473;50.772;8.768;2023-02-01T07:26:59;10.90;;;4.83;;
2386;SDS011;49473;50.772;8.768;2023-02-01T07:29:27;7.57;;;4.10;;
2386;SDS011;49473;50.772;8.768;2023-02-01T07:31:54;10.73;;;4.70;;
2386;SDS011;49473;50.772;8.768;2023-02-01T07:34:20;6.67;;;4.60;;
2386;SDS011;49473;50.772;8.768;2023-02-01T07:36:47;9.07;;;4.53;;
2386;SDS011;49473;50.772;8.768;2023-02-01T07:39:14;10.70;;;5.63;;
2386;SDS011;49473;50.772;8.768;2023-02-01T07:41:40;6.43;;;4.97;;
2386;SDS011;49473;50.772;8.768;2023-02-01T07:44:07;10.00;;;4.63;;
2386;SDS011;49473;50.772;8.768;2023-02-01T07:46:35;9.20;;;4.80;;
2386;SDS011;49473;50.772;8.768;2023-02-01T07:49:03;11.63;;;5.17;;
2386;SDS011;49473;50.772;8.768;2023-02-01T07:51:30;9.10;;;5.20;;
2386;SDS011;49473;50.772;8.768;2023-02-01T07:53:57;8.53;;;4.97;;
2386;SDS011;49473;50.772;8.768;2023-02-01T07:56:26;12.80;;;6.60;;
2386;SDS011;49473;50.772;8.768;2023-02-01T07:58:53;9.27;;;4.80;;
2386;SDS011;49473;50.772;8.768;2023-02-01T08:01:21;9.17;;;4.87;;
2386;SDS011;49473;50.772;8.768;2023-02-01T08:03:51;11.17;;;4.67;;
2386;SDS011;49473;50.772;8.768;2023-02-01T08:06:18;10.30;;;4.60;;
2386;SDS011;49473;50.772;8.768;2023-02-01T08:08:45;8.03;;;5.00;;
2386;SDS011;49473;50.772;8.768;2023-02-01T08:11:13;11.33;;;5.27;;
2386;SDS011;49473;50.772;8.768;2023-02-01T08:13:40;11.20;;;5.03;;
2386;SDS011;49473;50.772;8.768;2023-02-01T08:16:07;11.70;;;4.97;;
2386;SDS011;49473;50.772;8.768;2023-02-01T08:18:36;9.97;;;4.97;;
2386;SDS011;49473;50.772;8.768;2023-02-01T08:21:06;7.30;;;4.30;;
2386;SDS011;49473;50.772;8.768;2023-02-01T08:23:35;10.23;;;5.83;;
2386;SDS011;49473;50.772;8.768;2023-02-01T08:26:04;8.50;;;4.70;;
2386;SDS011;49473;50.772;8.768;2023-02-01T08:28:32;14.23;;;4.63;;
2386;SDS011;49473;50.772;8.768;2023-02-01T08:31:03;6.80;;;4.37;;
2386;SDS011;49473;50.772;8.768;2023-02-01T08:33:30;10.50;;;4.93;;
2386;SDS011;49473;50.772;8.768;2023-02-01T08:35:57;8.93;;;3.90;;
2386;SDS011;49473;50.772;8.768;2023-02-01T08:38:28;10.40;;;5.07;;
2386;SDS011;49473;50.772;8.768;2023-02-01T08:40:55;8.13;;;4.57;;
2386;SDS011;49473;50.772;8.768;2023-02-01T08:43:22;7.43;;;4.33;;
2386;SDS011;49473;50.772;8.768;2023-02-01T08:45:49;16.07;;;5.07;;
2386;SDS011;49473;50.772;8.768;2023-02-01T08:48:16;8.47;;;3.97;;
2386;SDS011;49473;50.772;8.768;2023-02-01T08:50:42;8.13;;;4.07;;
2386;SDS011;49473;50.772;8.768;2023-02-01T08:53:09;12.73;;;4.77;;
2386;SDS011;49473;50.772;8.768;2023-02-01T08:55:40;9.83;;;4.43;;
2386;SDS011;49473;50.772;8.768;2023-02-01T08:58:06;10.83;;;4.80;;
2386;SDS011;49473;50.772;8.768;2023-02-01T09:00:33;9.70;;;3.97;;
2386;SDS011;49473;50.772;8.768;2023-02-01T09:03:00;5.97;;;4.07;;
2386;SDS011;49473;50.772;8.768;2023-02-01T09:05:27;9.33;;;4.43;;
2386;SDS011;49473;50.772;8.768;2023-02-01T09:07:53;10.53;;;4.60;;
2386;SDS011;49473;50.772;8.768;2023-02-01T09:10:20;7.73;;;4.50;;
2386;SDS011;49473;50.772;8.768;2023-02-01T09:12:48;12.27;;;4.70;;
2386;SDS011;49473;50.772;8.768;2023-02-01T09:15:15;9.27;;;4.30;;
2386;SDS011;49473;50.772;8.768;2023-02-01T09:17:44;5.90;;;4.73;;
2386;SDS011;49473;50.772;8.768;2023-02-01T09:20:11;8.37;;;4.80;;
2386;SDS011;49473;50.772;8.768;2023-02-01T09:22:38;8.93;;;4.13;;
2386;SDS011;49473;50.772;8.768;2023-02-01T09:25:05;10.13;;;5.33;;
2386;SDS011;49473;50.772;8.768;2023-02-01T09:27:33;10.37;;;4.77;;
2386;SDS011;49473;50.772;8.768;2023-02-01T09:30:01;8.47;;;4.40;;
2386;SDS011;49473;50.772;8.768;2023-02-01T09:32:28;7.97;;;4.70;;
2386;SDS011;49473;50.772;8.768;2023-02-01T09:34:54;9.83;;;4.80;;
2386;SDS011;49473;50.772;8.768;2023-02-01T09:37:21;11.30;;;4.43;;
2386;SDS011;49473;50.772;8.768;2023-02-01T09:39:48;9.23;;;4.70;;
2386;SDS011;49473;50.772;8.768;2023-02-01T09:42:18;11.47;;;4.40;;
2386;SDS011;49473;50.772;8.768;2023-02-01T09:45:01;9.15;;;3.85;;
2386;SDS011;49473;50.772;8.768;2023-02-01T09:47:36;10.50;;;5.10;;
2386;SDS011;49473;50.772;8.768;2023-02-01T09:50:12;11.93;;;4.67;;
2386;SDS011;49473;50.772;8.768;2023-02-01T09:52:45;9.57;;;4.87;;
2386;SDS011;49473;50.772;8.768;2023-02-01T09:55:19;5.60;;;3.90;;
2386;SDS011;49473;50.772;8.768;2023-02-01T09:57:50;8.30;;;4.30;;
2386;SDS011;49473;50.772;8.768;2023-02-01T10:00:25;9.67;;;4.57;;
2386;SDS011;49473;50.772;8.768;2023-02-01T10:02:54;12.63;;;4.55;;
2386;SDS011;49473;50.772;8.768;2023-02-01T10:05:26;5.00;;;3.70;;
2386;SDS011;49473;50.772;8.768;2023-02-01T10:08:19;10.70;;;3.87;;
2386;SDS011;49473;50.772;8.768;2023-02-01T10:10:54;6.27;;;3.70;;
2386;SDS011;49473;50.772;8.768;2023-02-01T10:13:33;10.60;;;4.27;;
2386;SDS011;49473;50.772;8.768;2023-02-01T10:16:17;7.13;;;4.00;;
2386;SDS011;49473;50.772;8.768;2023-02-01T10:19:02;5.80;;;4.10;;
2386;SDS011;49473;50.772;8.768;2023-02-01T10:21:51;14.80;;;5.20;;
2386;SDS011;49473;50.772;8.768;2023-02-01T10:24:27;9.03;;;4.77;;
2386;SDS011;49473;50.772;8.768;2023-02-01T10:27:01;6.63;;;4.40;;
2386;SDS011;49473;50.772;8.768;2023-02-01T10:29:34;10.67;;;4.40;;
2386;SDS011;49473;50.772;8.768;2023-02-01T10:32:11;8.50;;;4.07;;
2386;SDS011;49473;50.772;8.768;2023-02-01T10:34:44;8.70;;;4.70;;
2386;SDS011;49473;50.772;8.768;2023-02-01T10:37:18;8.07;;;4.43;;
2386;SDS011;49473;50.772;8.768;2023-02-01T10:39:52;7.38;;;4.13;;
2386;SDS011;49473;50.772;8.768;2023-02-01T10:42:22;11.57;;;5.07;;
2386;SDS011;49473;50.772;8.768;2023-02-01T10:44:51;8.10;;;4.20;;
2386;SDS011;49473;50.772;8.768;2023-02-01T10:47:20;9.60;;;4.63;;
2386;SDS011;49473;50.772;8.768;2023-02-01T10:49:49;9.63;;;4.40;;
2386;SDS011;49473;50.772;8.768;2023-02-01T10:52:27;8.83;;;4.33;;
2386;SDS011;49473;50.772;8.768;2023-02-01T10:57:59;13.83;;;4.53;;
2386;SDS011;49473;50.772;8.768;2023-02-01T11:00:27;8.70;;;3.80;;
2386;SDS011;49473;50.772;8.768;2023-02-01T11:03:01;7.53;;;4.50;;
2386;SDS011;49473;50.772;8.768;2023-02-01T11:05:58;7.90;;;4.17;;
2386;SDS011;49473;50.772;8.768;2023-02-01T11:08:26;11.57;;;4.30;;
2386;SDS011;49473;50.772;8.768;2023-02-01T11:10:57;8.07;;;3.90;;
2386;SDS011;49473;50.772;8.768;2023-02-01T11:13:28;8.80;;;4.03;;
2386;SDS011;49473;50.772;8.768;2023-02-01T11:15:56;12.53;;;3.87;;
2386;SDS011;49473;50.772;8.768;2023-02-01T11:18:26;9.20;;;3.83;;
2386;SDS011;49473;50.772;8.768;2023-02-01T11:20:55;6.70;;;3.63;;
2386;SDS011;49473;50.772;8.768;2023-02-01T11:23:23;11.57;;;4.20;;
2386;SDS011;49473;50.772;8.768;2023-02-01T11:25:52;6.97;;;4.33;;
2386;SDS011;49473;50.772;8.768;2023-02-01T11:28:21;7.93;;;4.43;;
2386;SDS011;49473;50.772;8.768;2023-02-01T11:30:51;9.80;;;4.33;;
2386;SDS011;49473;50.772;8.768;2023-02-01T11:33:22;7.43;;;4.07;;
2386;SDS011;49473;50.772;8.768;2023-02-01T11:35:55;8.20;;;4.70;;
2386;SDS011;49473;50.772;8.768;2023-02-01T11:38:26;8.30;;;3.77;;
2386;SDS011;49473;50.772;8.768;2023-02-01T11:40:55;15.40;;;4.93;;
2386;SDS011;49473;50.772;8.768;2023-02-01T11:43:36;9.13;;;3.87;;
2386;SDS011;49473;50.772;8.768;2023-02-01T11:46:15;10.60;;;4.18;;
2386;SDS011;49473;50.772;8.768;2023-02-01T11:48:47;10.90;;;4.63;;
2386;SDS011;49473;50.772;8.768;2023-02-01T11:51:19;10.60;;;4.27;;
2386;SDS011;49473;50.772;8.768;2023-02-01T11:54:00;8.20;;;4.73;;
2386;SDS011;49473;50.772;8.768;2023-02-01T11:56:36;8.73;;;4.50;;
2386;SDS011;49473;50.772;8.768;2023-02-01T11:59:09;9.20;;;4.27;;
2386;SDS011;49473;50.772;8.768;2023-02-01T12:01:52;9.07;;;4.10;;
2386;SDS011;49473;50.772;8.768;2023-02-01T12:07:30;10.03;;;3.60;;
2386;SDS011;49473;50.772;8.768;2023-02-01T12:10:11;5.90;;;3.27;;
2386;SDS011;49473;50.772;8.768;2023-02-01T12:12:50;4.17;;;2.80;;
2386;SDS011;49473;50.772;8.768;2023-02-01T12:15:27;8.33;;;3.13;;
2386;SDS011;49473;50.772;8.768;2023-02-01T12:18:09;8.97;;;3.53;;
2386;SDS011;49473;50.772;8.768;2023-02-01T12:20:57;6.10;;;3.47;;
2386;SDS011;49473;50.772;8.768;2023-02-01T12:23:43;6.93;;;3.27;;
2386;SDS011;49473;50.772;8.768;2023-02-01T12:29:18;6.13;;;3.73;;
2386;SDS011;49473;50.772;8.768;2023-02-01T12:31:57;6.80;;;3.00;;
2386;SDS011;49473;50.772;8.768;2023-02-01T12:34:41;5.93;;;3.63;;
2386;SDS011;49473;50.772;8.768;2023-02-01T12:37:22;12.33;;;3.43;;
2386;SDS011;49473;50.772;8.768;2023-02-01T12:40:04;7.10;;;3.37;;
2386;SDS011;49473;50.772;8.768;2023-02-01T12:42:46;6.93;;;3.17;;
2386;SDS011;49473;50.772;8.768;2023-02-01T12:45:19;8.97;;;3.70;;
2386;SDS011;49473;50.772;8.768;2023-02-01T12:47:53;6.30;;;3.30;;
2386;SDS011;49473;50.772;8.768;2023-02-01T12:50:24;7.90;;;3.27;;
2386;SDS011;49473;50.772;8.768;2023-02-01T12:52:58;9.77;;;3.10;;
2386;SDS011;49473;50.772;8.768;2023-02-01T12:55:36;7.90;;;2.90;;
2386;SDS011;49473;50.772;8.768;2023-02-01T12:58:10;7.40;;;3.20;;
2386;SDS011;49473;50.772;8.768;2023-02-01T13:00:43;6.37;;;3.27;;
2386;SDS011;49473;50.772;8.768;2023-02-01T13:03:15;6.60;;;2.77;;
2386;SDS011;49473;50.772;8.768;2023-02-01T13:05:54;5.47;;;3.10;;
2386;SDS011;49473;50.772;8.768;2023-02-01T13:08:25;7.10;;;3.00;;
2386;SDS011;49473;50.772;8.768;2023-02-01T13:11:03;4.70;;;2.83;;
2386;SDS011;49473;50.772;8.768;2023-02-01T13:13:36;6.37;;;2.70;;
2386;SDS011;49473;50.772;8.768;2023-02-01T13:16:14;4.17;;;2.13;;
2386;SDS011;49473;50.772;8.768;2023-02-01T13:18:46;9.43;;;3.63;;
2386;SDS011;49473;50.772;8.768;2023-02-01T13:21:17;6.50;;;2.53;;
2386;SDS011;49473;50.772;8.768;2023-02-01T13:23:47;6.60;;;2.53;;
2386;SDS011;49473;50.772;8.768;2023-02-01T13:26:17;9.07;;;3.13;;
2386;SDS011;49473;50.772;8.768;2023-02-01T13:28:45;7.53;;;2.70;;
2386;SDS011;49473;50.772;8.768;2023-02-01T13:31:36;5.83;;;2.93;;
2386;SDS011;49473;50.772;8.768;2023-02-01T13:34:27;6.60;;;2.90;;
2386;SDS011;49473;50.772;8.768;2023-02-01T13:37:14;6.67;;;2.80;;
2386;SDS011;49473;50.772;8.768;2023-02-01T13:39:57;3.70;;;2.80;;
2386;SDS011;49473;50.772;8.768;2023-02-01T13:42:35;10.83;;;3.30;;
2386;SDS011;49473;50.772;8.768;2023-02-01T13:45:14;8.30;;;2.70;;
2386;SDS011;49473;50.772;8.768;2023-02-01T13:47:43;9.07;;;3.20;;
2386;SDS011;49473;50.772;8.768;2023-02-01T13:50:13;6.20;;;2.57;;
2386;SDS011;49473;50.772;8.768;2023-02-01T13:52:53;5.07;;;2.70;;
2386;SDS011;49473;50.772;8.768;2023-02-01T13:55:26;6.77;;;3.20;;
2386;SDS011;49473;50.772;8.768;2023-02-01T13:58:03;6.43;;;3.10;;
2386;SDS011;49473;50.772;8.768;2023-02-01T14:00:36;5.33;;;2.70;;
2386;SDS011;49473;50.772;8.768;2023-02-01T14:03:10;8.00;;;2.83;;
2386;SDS011;49473;50.772;8.768;2023-02-01T14:06:03;5.83;;;2.87;;
2386;SDS011;49473;50.772;8.768;2023-02-01T14:08:43;5.50;;;2.90;;
2386;SDS011;49473;50.772;8.768;2023-02-01T14:11:34;9.60;;;3.50;;
2386;SDS011;49473;50.772;8.768;2023-02-01T14:14:36;4.00;;;2.87;;
2386;SDS011;49473;50.772;8.768;2023-02-01T14:23:23;5.97;;;2.80;;
2386;SDS011;49473;50.772;8.768;2023-02-01T14:26:06;4.60;;;2.93;;
2386;SDS011;49473;50.772;8.768;2023-02-01T14:28:38;5.20;;;2.80;;
2386;SDS011;49473;50.772;8.768;2023-02-01T14:31:28;6.23;;;3.13;;
2386;SDS011;49473;50.772;8.768;2023-02-01T14:34:18;9.17;;;3.13;;
2386;SDS011;49473;50.772;8.768;2023-02-01T14:36:49;7.80;;;3.70;;
2386;SDS011;49473;50.772;8.768;2023-02-01T14:39:29;7.43;;;3.63;;
2386;SDS011;49473;50.772;8.768;2023-02-01T14:42:04;7.73;;;3.10;;
2386;SDS011;49473;50.772;8.768;2023-02-01T14:44:40;5.85;;;2.90;;
2386;SDS011;49473;50.772;8.768;2023-02-01T14:52:50;4.40;;;2.50;;
2386;SDS011;49473;50.772;8.768;2023-02-01T14:55:24;5.33;;;2.73;;
2386;SDS011;49473;50.772;8.768;2023-02-01T14:57:55;4.27;;;2.47;;
2386;SDS011;49473;50.772;8.768;2023-02-01T15:00:25;5.53;;;3.00;;
2386;SDS011;49473;50.772;8.768;2023-02-01T15:02:56;3.97;;;2.53;;
2386;SDS011;49473;50.772;8.768;2023-02-01T15:05:41;6.20;;;2.87;;
2386;SDS011;49473;50.772;8.768;2023-02-01T15:08:12;5.13;;;2.60;;
2386;SDS011;49473;50.772;8.768;2023-02-01T15:10:43;7.80;;;3.40;;
2386;SDS011;49473;50.772;8.768;2023-02-01T15:13:19;4.57;;;2.43;;
2386;SDS011;49473;50.772;8.768;2023-02-01T15:16:04;4.00;;;2.60;;
2386;SDS011;49473;50.772;8.768;2023-02-01T15:18:36;5.03;;;2.50;;
2386;SDS011;49473;50.772;8.768;2023-02-01T15:21:03;5.07;;;3.23;;
2386;SDS011;49473;50.772;8.768;2023-02-01T15:23:31;3.00;;;2.70;;
2386;SDS011;49473;50.772;8.768;2023-02-01T15:25:59;5.97;;;3.03;;
2386;SDS011;49473;50.772;8.768;2023-02-01T15:28:26;3.13;;;2.67;;
2386;SDS011;49473;50.772;8.768;2023-02-01T15:30:54;5.80;;;3.40;;
2386;SDS011;49473;50.772;8.768;2023-02-01T15:33:22;6.70;;;4.23;;
2386;SDS011;49473;50.772;8.768;2023-02-01T15:35:51;7.53;;;3.87;;
2386;SDS011;49473;50.772;8.768;2023-02-01T15:38:30;4.80;;;3.80;;
2386;SDS011;49473;50.772;8.768;2023-02-01T15:40:59;5.57;;;3.30;;
2386;SDS011;49473;50.772;8.768;2023-02-01T15:43:28;5.30;;;2.90;;
2386;SDS011;49473;50.772;8.768;2023-02-01T15:45:57;6.97;;;3.17;;
2386;SDS011;49473;50.772;8.768;2023-02-01T15:48:26;7.87;;;3.10;;